Time;durP1;ratioP1;P1;durP2;ratioP2;P2;SDS_P1;SDS_P2;PMS_P1;PMS_P2;Temp;Humidity;BMP_temperature;BMP_pressure;BME280_temperature;BME280_humidity;BME280_pressure;Samples;Min_cycle;Max_cycle;Signal;HPM_P1;HPM_P2
2021/05/22 00:01:24;;;;;;;3.47;1.03;;;12.10;97.60;;;;;;4166457;28;20492;-79
2021/05/22 00:03:25;;;;;;;3.50;1.10;;;12.10;97.80;;;;;;4166651;28;20560;-78
2021/05/22 00:05:27;;;;;;;1.70;1.00;;;12.10;97.70;;;;;;4166592;28;20261;-80
2021/05/22 00:07:28;;;;;;;1.63;1.00;;;12.10;97.70;;;;;;4170499;28;20213;-79
2021/05/22 00:09:29;;;;;;;4.83;1.20;;;12.10;97.70;;;;;;4169286;28;20210;-79
2021/05/22 00:11:31;;;;;;;1.60;1.10;;;12.00;97.90;;;;;;4174413;28;20216;-79
2021/05/22 00:13:32;;;;;;;1.83;1.03;;;12.00;98.10;;;;;;4166436;28;20219;-78
2021/05/22 00:15:33;;;;;;;2.80;0.93;;;12.00;98.20;;;;;;4166838;28;20245;-79
2021/05/22 00:17:34;;;;;;;1.90;1.00;;;12.00;98.30;;;;;;4170884;28;20671;-78
2021/05/22 00:19:36;;;;;;;2.33;0.90;;;12.00;98.30;;;;;;4167681;28;20679;-79
2021/05/22 00:21:38;;;;;;;2.80;1.00;;;12.00;98.40;;;;;;4170821;28;20210;-79
2021/05/22 00:23:39;;;;;;;4.70;1.27;;;12.00;98.50;;;;;;4173790;28;20209;-80
2021/05/22 00:25:40;;;;;;;1.63;1.00;;;12.00;98.40;;;;;;4166416;28;20231;-79
2021/05/22 00:27:42;;;;;;;3.67;1.40;;;11.90;98.40;;;;;;4177863;28;20550;-78
2021/05/22 00:29:43;;;;;;;2.53;1.30;;;11.90;98.50;;;;;;4169734;28;20209;-80
2021/05/22 00:31:44;;;;;;;4.07;1.37;;;12.00;98.50;;;;;;4176917;28;20210;-78
2021/05/22 00:33:45;;;;;;;2.87;1.20;;;12.00;98.50;;;;;;4172922;28;20679;-80
2021/05/22 00:35:46;;;;;;;3.60;1.10;;;12.00;98.60;;;;;;4164402;28;20638;-79
2021/05/22 00:37:48;;;;;;;2.47;1.20;;;12.00;98.60;;;;;;4172413;28;20213;-78
2021/05/22 00:39:50;;;;;;;4.70;1.40;;;12.00;98.60;;;;;;4172858;28;20218;-78
2021/05/22 00:41:51;;;;;;;3.80;1.20;;;12.00;98.60;;;;;;4169553;28;20218;-80
2021/05/22 00:43:52;;;;;;;2.83;1.50;;;11.90;98.70;;;;;;4166014;28;20627;-78
2021/05/22 00:45:54;;;;;;;5.23;1.40;;;11.90;98.70;;;;;;4166018;28;20283;-80
2021/05/22 00:47:57;;;;;;;3.80;1.50;;;12.00;98.70;;;;;;4171268;28;20205;-80
2021/05/22 00:49:58;;;;;;;4.97;1.10;;;12.00;98.70;;;;;;4181230;28;20217;-79
2021/05/22 00:52:01;;;;;;;4.27;1.40;;;11.90;99.10;;;;;;4171989;28;20653;-79
2021/05/22 00:54:04;;;;;;;2.33;1.13;;;12.00;98.90;;;;;;4178636;28;20245;-79
2021/05/22 00:56:05;;;;;;;2.73;1.00;;;11.90;98.80;;;;;;4173268;28;20226;-78
2021/05/22 00:58:07;;;;;;;3.60;1.00;;;12.00;99.00;;;;;;4171000;28;21431;-79
2021/05/22 01:00:10;;;;;;;2.53;1.10;;;11.90;98.90;;;;;;4170372;28;20266;-81
2021/05/22 01:02:12;;;;;;;2.80;1.20;;;11.90;98.90;;;;;;4169423;28;20213;-79
2021/05/22 01:04:19;;;;;;;3.43;1.07;;;11.90;99.00;;;;;;4177126;28;20201;-79
2021/05/22 01:06:30;;;;;;;1.47;1.00;;;11.90;99.20;;;;;;4174997;28;20601;-79
2021/05/22 01:08:31;;;;;;;2.43;1.10;;;11.90;99.30;;;;;;4173700;28;20205;-79
2021/05/22 01:10:33;;;;;;;1.80;1.27;;;11.80;99.30;;;;;;4168950;28;20202;-79
2021/05/22 01:12:39;;;;;;;1.27;0.97;;;11.90;99.30;;;;;;4174227;28;20224;-79
2021/05/22 01:14:43;;;;;;;1.97;1.00;;;11.80;99.40;;;;;;4178969;28;20207;-79
2021/05/22 01:16:46;;;;;;;2.17;1.20;;;11.70;99.40;;;;;;4168664;28;20247;-79
2021/05/22 01:18:48;;;;;;;2.87;1.10;;;11.70;99.50;;;;;;4173248;28;20263;-79
2021/05/22 01:20:54;;;;;;;2.80;1.10;;;11.70;99.60;;;;;;4175187;28;20197;-78
2021/05/22 01:23:01;;;;;;;4.90;1.17;;;11.70;99.70;;;;;;4163788;28;20206;-79
2021/05/22 01:25:05;;;;;;;2.73;1.00;;;11.70;99.80;;;;;;4168912;28;20233;-78
2021/05/22 01:27:08;;;;;;;1.00;0.90;;;11.70;99.90;;;;;;4168482;28;20213;-79
2021/05/22 01:29:09;;;;;;;3.73;1.03;;;11.60;99.80;;;;;;4168622;28;20633;-78
2021/05/22 01:31:11;;;;;;;2.20;1.40;;;11.60;99.80;;;;;;4163501;28;20740;-79
2021/05/22 01:33:13;;;;;;;2.40;1.20;;;11.50;99.90;;;;;;4164208;28;20641;-78
2021/05/22 01:35:15;;;;;;;1.30;1.20;;;11.50;99.90;;;;;;4165038;28;20237;-79
2021/05/22 01:37:16;;;;;;;1.83;1.10;;;11.50;99.90;;;;;;4168612;28;20205;-79
2021/05/22 01:39:17;;;;;;;2.10;1.20;;;11.50;99.90;;;;;;4171738;28;20233;-79
2021/05/22 01:41:19;;;;;;;2.33;1.10;;;11.50;99.90;;;;;;4170996;28;20234;-78
2021/05/22 01:43:21;;;;;;;1.60;1.00;;;11.40;99.90;;;;;;4172257;28;20218;-78
2021/05/22 01:45:26;;;;;;;2.47;1.10;;;11.40;99.90;;;;;;4171383;28;20235;-78
2021/05/22 01:47:28;;;;;;;2.27;1.20;;;11.40;99.90;;;;;;4178462;28;20214;-79
2021/05/22 01:49:31;;;;;;;1.67;0.90;;;11.40;99.90;;;;;;4169548;28;20209;-78
2021/05/22 01:51:32;;;;;;;2.20;1.00;;;11.30;99.90;;;;;;4179415;28;20209;-79
2021/05/22 01:53:36;;;;;;;1.87;1.00;;;11.30;99.90;;;;;;4176772;28;20456;-79
2021/05/22 01:55:38;;;;;;;1.33;1.03;;;11.30;99.90;;;;;;4169630;28;20225;-79
2021/05/22 01:57:40;;;;;;;3.37;0.97;;;11.30;99.90;;;;;;4173913;28;20211;-79
2021/05/22 01:59:42;;;;;;;3.43;1.20;;;11.20;99.90;;;;;;4175996;28;20228;-79
2021/05/22 02:01:48;;;;;;;2.93;1.00;;;11.30;99.90;;;;;;4163845;28;20263;-81
2021/05/22 02:03:51;;;;;;;2.13;1.10;;;11.20;99.90;;;;;;4164504;28;20296;-79
2021/05/22 02:05:54;;;;;;;2.67;1.10;;;11.20;99.90;;;;;;4173565;28;20227;-82
2021/05/22 02:07:57;;;;;;;1.97;0.90;;;11.30;99.90;;;;;;4174482;28;20454;-79
2021/05/22 02:10:00;;;;;;;3.57;1.03;;;11.30;99.90;;;;;;4177963;28;20850;-79
2021/05/22 02:12:05;;;;;;;4.00;1.10;;;11.30;99.90;;;;;;4172464;28;20208;-78
2021/05/22 02:14:08;;;;;;;1.80;1.00;;;11.30;99.90;;;;;;4178558;28;20575;-79
2021/05/22 02:16:13;;;;;;;2.43;1.10;;;11.30;99.90;;;;;;4177914;28;20237;-79
2021/05/22 02:18:16;;;;;;;2.73;1.00;;;11.30;99.90;;;;;;4169731;28;20237;-80
2021/05/22 02:20:20;;;;;;;4.10;1.20;;;11.30;99.90;;;;;;4172132;28;20522;-79
2021/05/22 02:22:23;;;;;;;1.73;0.80;;;11.30;99.90;;;;;;4164114;28;20212;-79
2021/05/22 02:24:25;;;;;;;1.67;1.17;;;11.30;99.90;;;;;;4170269;28;20209;-80
2021/05/22 02:26:27;;;;;;;3.20;1.20;;;11.30;99.90;;;;;;4169625;28;20688;-82
2021/05/22 02:28:32;;;;;;;1.57;0.97;;;11.20;99.90;;;;;;4169218;28;20212;-78
2021/05/22 02:30:35;;;;;;;2.10;1.10;;;11.20;99.90;;;;;;4165682;28;20215;-79
2021/05/22 02:32:40;;;;;;;3.13;0.90;;;11.20;99.90;;;;;;4179300;28;20207;-79
2021/05/22 02:34:47;;;;;;;1.73;0.87;;;11.10;99.90;;;;;;4174036;28;20322;-78
2021/05/22 02:36:53;;;;;;;1.37;1.00;;;11.10;99.90;;;;;;4164826;28;20628;-79
2021/05/22 02:38:54;;;;;;;2.03;1.20;;;11.10;99.90;;;;;;4164858;28;20687;-78
2021/05/22 02:41:00;;;;;;;2.40;1.10;;;11.10;99.90;;;;;;4164810;28;20207;-78
2021/05/22 02:43:05;;;;;;;2.90;1.20;;;11.10;99.90;;;;;;4164564;28;20595;-78
2021/05/22 02:45:09;;;;;;;2.43;1.07;;;11.10;99.90;;;;;;4181888;23;20229;-81
2021/05/22 02:47:11;;;;;;;1.90;1.00;;;11.10;99.90;;;;;;4182249;28;20227;-80
2021/05/22 02:49:17;;;;;;;2.53;1.13;;;11.10;99.90;;;;;;4177412;28;20216;-80
2021/05/22 02:51:22;;;;;;;1.00;0.90;;;11.10;99.90;;;;;;4170772;28;20205;-80
2021/05/22 02:53:27;;;;;;;5.07;1.00;;;11.00;99.90;;;;;;4170430;28;20225;-80
2021/05/22 02:55:29;;;;;;;1.27;0.87;;;11.10;99.90;;;;;;4167340;28;20604;-80
2021/05/22 02:57:31;;;;;;;1.20;0.80;;;11.00;99.90;;;;;;4156080;28;20224;-80
2021/05/22 02:59:35;;;;;;;4.60;1.13;;;11.10;99.90;;;;;;4156611;28;20253;-81
2021/05/22 03:01:37;;;;;;;2.40;0.90;;;11.10;99.90;;;;;;4150631;28;20240;-79
2021/05/22 03:03:40;;;;;;;0.80;0.70;;;11.10;99.90;;;;;;4161903;28;20220;-80
2021/05/22 03:05:42;;;;;;;1.97;0.80;;;11.10;99.90;;;;;;4159791;28;20227;-80
2021/05/22 03:07:44;;;;;;;3.23;0.90;;;11.10;99.90;;;;;;4160059;28;20215;-80
2021/05/22 03:09:46;;;;;;;2.93;1.00;;;11.10;99.90;;;;;;4159305;28;20208;-80
2021/05/22 03:11:47;;;;;;;3.27;0.90;;;11.10;99.90;;;;;;4158266;28;20207;-80
2021/05/22 03:13:49;;;;;;;3.27;0.93;;;11.30;99.90;;;;;;4162425;28;20217;-80
2021/05/22 03:15:51;;;;;;;1.67;0.90;;;11.20;99.90;;;;;;4166842;28;20713;-80
2021/05/22 03:17:52;;;;;;;1.97;0.90;;;11.20;99.90;;;;;;4165597;28;20279;-81
2021/05/22 03:19:53;;;;;;;1.97;0.90;;;11.10;99.90;;;;;;4160495;28;20659;-78
2021/05/22 03:21:55;;;;;;;5.07;0.83;;;11.10;99.90;;;;;;4161440;28;20221;-81
2021/05/22 03:23:56;;;;;;;2.60;1.07;;;11.20;99.90;;;;;;4160756;28;20231;-80
2021/05/22 03:25:58;;;;;;;3.13;0.80;;;11.20;99.90;;;;;;4158310;28;20237;-80
2021/05/22 03:27:59;;;;;;;4.00;1.03;;;11.20;99.90;;;;;;4161575;28;20217;-80
2021/05/22 03:30:00;;;;;;;1.80;0.70;;;11.20;99.90;;;;;;4161385;28;20659;-81
2021/05/22 03:32:01;;;;;;;1.93;0.90;;;11.20;99.90;;;;;;4153061;28;20208;-80
2021/05/22 03:34:03;;;;;;;1.33;0.70;;;11.20;99.90;;;;;;4160041;28;20216;-80
2021/05/22 03:36:05;;;;;;;2.27;0.90;;;11.20;99.90;;;;;;4157799;28;20229;-81
2021/05/22 03:38:07;;;;;;;1.83;0.90;;;11.30;99.90;;;;;;4164456;28;20712;-81
2021/05/22 03:40:10;;;;;;;2.90;0.90;;;11.30;99.90;;;;;;4158027;28;20216;-80
2021/05/22 03:42:11;;;;;;;3.10;0.90;;;11.30;99.90;;;;;;4164282;28;20208;-80
2021/05/22 03:44:12;;;;;;;1.00;0.70;;;11.30;99.90;;;;;;4167574;28;20377;-81
2021/05/22 03:46:14;;;;;;;4.57;0.73;;;11.40;99.90;;;;;;4167283;28;20286;-80
2021/05/22 03:48:15;;;;;;;2.20;0.80;;;11.30;99.90;;;;;;4165762;28;20221;-80
2021/05/22 03:50:17;;;;;;;2.07;0.90;;;11.40;99.90;;;;;;4158903;28;20210;-80
2021/05/22 03:52:18;;;;;;;4.80;0.67;;;11.40;99.90;;;;;;4161972;28;20220;-80
2021/05/22 03:54:20;;;;;;;2.20;0.90;;;11.40;99.90;;;;;;4161677;28;20216;-80
2021/05/22 03:56:22;;;;;;;1.33;0.70;;;11.40;99.90;;;;;;4166612;28;20244;-80
2021/05/22 03:58:24;;;;;;;2.73;0.70;;;11.50;99.90;;;;;;4166031;28;20239;-81
2021/05/22 04:00:25;;;;;;;2.60;0.90;;;11.50;99.70;;;;;;4166826;28;20213;-80
2021/05/22 04:02:26;;;;;;;1.97;0.77;;;11.50;99.50;;;;;;4161459;28;20209;-80
2021/05/22 04:04:27;;;;;;;1.17;0.60;;;11.50;99.00;;;;;;4159211;28;20208;-80
2021/05/22 04:06:29;;;;;;;2.30;0.70;;;11.60;98.70;;;;;;4162773;28;20229;-82
2021/05/22 04:08:30;;;;;;;1.83;0.73;;;11.50;98.70;;;;;;4162980;28;20205;-80
2021/05/22 04:10:32;;;;;;;1.60;0.60;;;11.60;98.70;;;;;;4167756;28;20210;-80
2021/05/22 04:12:33;;;;;;;1.00;0.67;;;11.60;98.60;;;;;;4169307;28;20214;-82
2021/05/22 04:14:34;;;;;;;2.37;0.73;;;11.60;98.30;;;;;;4170926;28;20241;-80
2021/05/22 04:16:36;;;;;;;1.83;0.77;;;11.60;98.30;;;;;;4170442;28;20229;-82
2021/05/22 04:18:37;;;;;;;2.00;0.60;;;11.60;98.10;;;;;;4168965;28;20239;-82
2021/05/22 04:20:38;;;;;;;2.40;0.90;;;11.60;98.00;;;;;;4174918;28;20210;-82
2021/05/22 04:22:39;;;;;;;2.97;0.60;;;11.60;98.00;;;;;;4175967;28;20208;-81
2021/05/22 04:24:41;;;;;;;1.27;0.50;;;11.60;97.90;;;;;;4171628;28;20216;-81
2021/05/22 04:26:43;;;;;;;1.07;0.43;;;11.60;97.40;;;;;;4176283;28;20228;-82
2021/05/22 04:28:44;;;;;;;1.40;0.70;;;11.60;97.50;;;;;;4172509;28;20209;-82
2021/05/22 04:30:45;;;;;;;2.37;0.63;;;11.60;97.30;;;;;;4167064;28;20643;-82
2021/05/22 04:32:47;;;;;;;2.53;0.50;;;11.50;97.30;;;;;;4164759;28;20212;-80
2021/05/22 04:34:48;;;;;;;0.93;0.47;;;11.50;97.30;;;;;;4163250;28;20270;-82
2021/05/22 04:36:49;;;;;;;1.10;0.60;;;11.50;97.10;;;;;;4161004;28;20209;-80
2021/05/22 04:38:52;;;;;;;3.80;0.60;;;11.40;97.90;;;;;;4162848;28;20290;-81
2021/05/22 04:40:53;;;;;;;1.80;0.50;;;11.30;99.00;;;;;;4164565;28;20689;-80
2021/05/22 04:42:55;;;;;;;1.47;0.50;;;11.20;99.50;;;;;;4162115;28;20263;-81
2021/05/22 04:44:56;;;;;;;1.90;0.60;;;11.00;99.90;;;;;;4169958;28;20216;-82
2021/05/22 04:46:58;;;;;;;2.67;0.63;;;10.90;99.90;;;;;;4169857;28;20662;-81
2021/05/22 04:48:59;;;;;;;1.70;0.50;;;10.80;99.90;;;;;;4163760;28;20219;-80
2021/05/22 04:51:00;;;;;;;2.37;0.70;;;10.80;99.90;;;;;;4162788;28;20238;-80
2021/05/22 04:53:01;;;;;;;1.23;0.50;;;10.90;99.90;;;;;;4161588;28;20220;-80
2021/05/22 04:55:03;;;;;;;1.90;0.50;;;10.90;99.90;;;;;;4162402;28;20207;-81
2021/05/22 04:57:06;;;;;;;1.20;0.57;;;10.80;99.90;;;;;;4160568;28;20205;-82
2021/05/22 04:59:08;;;;;;;1.73;0.40;;;10.80;99.90;;;;;;4163403;28;20285;-81
2021/05/22 05:01:09;;;;;;;1.80;0.73;;;10.80;99.90;;;;;;4163258;28;20576;-80
2021/05/22 05:03:10;;;;;;;1.30;0.60;;;10.80;99.70;;;;;;4158733;28;20231;-82
2021/05/22 05:05:13;;;;;;;1.77;0.60;;;10.80;99.60;;;;;;4160319;28;20238;-80
2021/05/22 05:07:14;;;;;;;0.90;0.57;;;10.80;99.50;;;;;;4159145;28;20220;-81
2021/05/22 05:09:16;;;;;;;3.83;0.70;;;10.80;99.50;;;;;;4160715;28;20233;-82
2021/05/22 05:11:17;;;;;;;3.43;0.97;;;10.80;99.30;;;;;;4160104;28;20216;-80
2021/05/22 05:13:19;;;;;;;0.93;0.40;;;10.90;99.30;;;;;;4164892;28;20209;-81
2021/05/22 05:15:21;;;;;;;2.83;0.60;;;10.90;99.70;;;;;;4161650;28;20232;-80
2021/05/22 05:17:22;;;;;;;4.10;0.80;;;10.80;99.60;;;;;;4161671;28;20212;-80
2021/05/22 05:19:27;;;;;;;1.27;0.50;;;10.90;99.10;;;;;;4166151;28;20231;-81
2021/05/22 05:21:28;;;;;;;1.47;0.60;;;10.90;99.50;;;;;;4167253;28;20520;-80
2021/05/22 05:23:29;;;;;;;2.23;0.50;;;10.90;99.40;;;;;;4167007;28;20204;-81
2021/05/22 05:25:31;;;;;;;2.50;0.90;;;10.90;99.40;;;;;;4165419;28;20235;-80
2021/05/22 05:27:32;;;;;;;1.53;0.50;;;10.90;99.70;;;;;;4169327;28;20204;-80
2021/05/22 05:29:39;;;;;;;1.23;0.50;;;10.90;99.00;;;;;;4168906;28;20208;-80
2021/05/22 05:31:41;;;;;;;2.43;0.40;;;10.90;99.30;;;;;;4169108;28;20211;-80
2021/05/22 05:33:42;;;;;;;1.63;0.50;;;11.00;99.60;;;;;;4162481;28;20755;-80
2021/05/22 05:35:43;;;;;;;1.87;0.70;;;11.00;99.40;;;;;;4157030;28;20255;-80
2021/05/22 05:37:45;;;;;;;1.50;0.43;;;11.10;99.20;;;;;;4160418;28;20221;-82
2021/05/22 05:39:46;;;;;;;0.93;0.43;;;11.10;99.30;;;;;;4165929;28;20235;-81
2021/05/22 05:41:48;;;;;;;2.90;0.50;;;11.20;99.30;;;;;;4160802;28;20253;-80
2021/05/22 05:43:49;;;;;;;3.33;0.60;;;11.30;99.00;;;;;;4162088;28;20208;-80
2021/05/22 05:45:50;;;;;;;1.00;0.40;;;11.30;99.10;;;;;;4166621;28;20255;-80
2021/05/22 05:47:53;;;;;;;4.50;0.93;;;11.30;99.10;;;;;;4158713;28;20229;-80
2021/05/22 05:49:55;;;;;;;2.20;0.60;;;11.20;99.00;;;;;;4165586;28;20733;-80
2021/05/22 05:51:56;;;;;;;1.97;0.80;;;11.20;99.00;;;;;;4153746;28;20457;-80
2021/05/22 05:53:57;;;;;;;2.93;0.70;;;11.10;99.40;;;;;;4153708;28;20218;-80
2021/05/22 05:55:58;;;;;;;3.40;0.80;;;11.10;99.20;;;;;;4154384;28;20259;-81
2021/05/22 05:58:00;;;;;;;2.83;0.63;;;11.00;99.30;;;;;;4162896;28;20209;-80
2021/05/22 06:00:03;;;;;;;2.83;0.67;;;11.00;99.30;;;;;;4164415;28;20228;-80
2021/05/22 06:02:04;;;;;;;2.13;0.60;;;11.00;99.30;;;;;;4158385;28;20219;-81
2021/05/22 06:04:07;;;;;;;1.23;0.40;;;11.00;99.00;;;;;;4157137;28;20213;-80
2021/05/22 06:06:09;;;;;;;1.93;0.50;;;11.00;98.80;;;;;;4154557;28;20248;-80
2021/05/22 06:08:10;;;;;;;2.57;0.60;;;11.10;98.00;;;;;;4166002;28;20217;-80
2021/05/22 06:10:13;;;;;;;1.83;0.50;;;11.20;97.50;;;;;;4165895;28;20210;-80
2021/05/22 06:12:14;;;;;;;0.93;0.43;;;11.30;97.20;;;;;;4161647;28;20221;-80
2021/05/22 06:14:18;;;;;;;2.83;0.70;;;11.40;96.60;;;;;;4168718;28;20621;-80
2021/05/22 06:16:25;;;;;;;1.07;0.40;;;11.40;96.50;;;;;;4167589;28;20295;-80
2021/05/22 06:18:29;;;;;;;2.50;0.80;;;11.50;95.80;;;;;;4168947;28;20223;-80
2021/05/22 06:20:31;;;;;;;3.07;0.70;;;11.50;95.60;;;;;;4158284;28;20212;-80
2021/05/22 06:22:33;;;;;;;0.73;0.60;;;11.50;95.10;;;;;;4164317;28;20205;-80
2021/05/22 06:24:34;;;;;;;1.90;0.60;;;11.50;94.90;;;;;;4164942;28;20213;-80
2021/05/22 06:26:36;;;;;;;1.57;0.50;;;11.50;94.80;;;;;;4159035;28;20247;-79
2021/05/22 06:28:37;;;;;;;1.07;0.60;;;11.50;95.10;;;;;;4162803;28;20435;-80
2021/05/22 06:30:38;;;;;;;2.87;0.70;;;11.50;95.20;;;;;;4156041;28;20210;-80
2021/05/22 06:32:39;;;;;;;5.40;0.97;;;11.60;95.40;;;;;;4152127;28;20259;-80
2021/05/22 06:34:41;;;;;;;2.47;0.60;;;11.70;95.30;;;;;;4154668;28;20266;-81
2021/05/22 06:36:43;;;;;;;4.13;0.70;;;11.70;94.80;;;;;;4163028;28;20313;-80
2021/05/22 06:38:44;;;;;;;2.87;0.53;;;11.80;94.40;;;;;;4160360;28;20254;-81
2021/05/22 06:40:45;;;;;;;1.83;0.70;;;11.80;94.70;;;;;;4166552;28;20209;-81
2021/05/22 06:42:47;;;;;;;4.30;0.70;;;11.90;94.80;;;;;;4159360;28;20266;-80
2021/05/22 06:44:53;;;;;;;2.90;0.63;;;11.80;95.10;;;;;;4158250;28;20213;-80
2021/05/22 06:46:54;;;;;;;6.77;1.40;;;11.90;95.40;;;;;;4156162;28;20231;-82
2021/05/22 06:48:55;;;;;;;2.20;0.83;;;11.90;95.30;;;;;;4162644;28;20219;-79
2021/05/22 06:50:56;;;;;;;1.03;0.50;;;11.90;94.80;;;;;;4161025;28;20211;-81
2021/05/22 06:52:58;;;;;;;5.47;0.80;;;11.90;95.10;;;;;;4163461;28;20237;-81
2021/05/22 06:55:00;;;;;;;2.70;1.40;;;11.90;95.20;;;;;;4155664;28;20206;-80
2021/05/22 06:57:01;;;;;;;3.97;0.60;;;12.00;94.70;;;;;;4148549;28;20644;-80
2021/05/22 06:59:03;;;;;;;3.33;0.80;;;12.10;94.90;;;;;;4151230;28;20241;-80
2021/05/22 07:01:04;;;;;;;4.30;0.83;;;12.20;95.10;;;;;;4164143;28;20226;-81
2021/05/22 07:03:06;;;;;;;2.43;0.70;;;12.30;94.70;;;;;;4156936;28;20216;-80
2021/05/22 07:05:07;;;;;;;3.47;0.50;;;12.40;94.50;;;;;;4161145;28;20232;-80
2021/05/22 07:07:09;;;;;;;2.77;0.90;;;12.60;94.10;;;;;;4158955;28;20218;-83
2021/05/22 07:09:11;;;;;;;4.10;0.80;;;12.70;93.90;;;;;;4160411;28;20229;-80
2021/05/22 07:11:12;;;;;;;4.07;0.80;;;12.80;94.00;;;;;;4148414;28;20207;-80
2021/05/22 07:13:13;;;;;;;8.13;0.70;;;12.80;93.00;;;;;;4150353;28;20709;-78
2021/05/22 07:15:15;;;;;;;4.03;0.70;;;12.80;92.40;;;;;;4154681;28;20687;-79
2021/05/22 07:17:16;;;;;;;1.77;0.60;;;12.90;92.10;;;;;;4160719;28;20222;-79
2021/05/22 07:19:17;;;;;;;2.40;0.63;;;12.90;92.10;;;;;;4159499;28;20799;-78
2021/05/22 07:21:19;;;;;;;1.20;0.50;;;12.90;92.10;;;;;;4154584;28;20591;-78
2021/05/22 07:23:20;;;;;;;3.20;0.60;;;12.90;91.80;;;;;;4150487;28;20221;-79
2021/05/22 07:25:22;;;;;;;2.90;0.67;;;13.00;91.90;;;;;;4160269;28;20233;-79
2021/05/22 07:27:23;;;;;;;3.77;0.70;;;13.00;92.00;;;;;;4159306;28;20574;-80
2021/05/22 07:29:25;;;;;;;2.30;0.73;;;13.10;91.60;;;;;;4157690;28;20214;-79
2021/05/22 07:31:26;;;;;;;2.07;0.57;;;13.20;91.60;;;;;;4158125;28;20215;-80
2021/05/22 07:33:28;;;;;;;2.17;0.60;;;13.10;91.20;;;;;;4160043;28;20228;-79
2021/05/22 07:35:29;;;;;;;3.67;0.70;;;13.20;91.00;;;;;;4162445;28;20311;-79
2021/05/22 07:37:30;;;;;;;4.13;0.90;;;13.20;90.70;;;;;;4159305;28;20234;-79
2021/05/22 07:39:31;;;;;;;4.30;0.60;;;13.30;91.20;;;;;;4157558;28;20225;-81
2021/05/22 07:41:33;;;;;;;2.53;0.60;;;13.30;91.20;;;;;;4149697;28;20216;-79
2021/05/22 07:43:35;;;;;;;1.70;0.60;;;13.40;91.20;;;;;;4152427;28;20631;-79
2021/05/22 07:45:36;;;;;;;1.30;0.53;;;13.60;89.70;;;;;;4156985;28;20619;-79
2021/05/22 07:47:40;;;;;;;1.47;0.50;;;13.70;88.30;;;;;;4157021;28;20202;-79
2021/05/22 07:49:41;;;;;;;1.40;0.50;;;13.70;85.70;;;;;;4158853;28;20208;-79
2021/05/22 07:51:46;;;;;;;1.87;0.50;;;13.60;85.80;;;;;;4154014;28;20289;-81
2021/05/22 07:53:47;;;;;;;1.03;0.57;;;13.60;85.80;;;;;;4152870;28;20250;-79
2021/05/22 07:55:48;;;;;;;1.17;0.43;;;13.60;84.50;;;;;;4158483;28;20699;-79
2021/05/22 07:57:51;;;;;;;2.90;0.50;;;14.00;84.70;;;;;;4155835;28;20208;-80
2021/05/22 07:59:52;;;;;;;1.77;0.47;;;13.60;85.00;;;;;;4171446;28;20236;-79
2021/05/22 08:01:54;;;;;;;1.60;0.53;;;13.80;83.40;;;;;;4171602;28;20237;-81
2021/05/22 08:03:55;;;;;;;1.40;0.60;;;13.80;82.80;;;;;;4175965;28;20211;-79
2021/05/22 08:05:56;;;;;;;1.67;0.70;;;13.90;81.30;;;;;;4160709;28;20608;-79
2021/05/22 08:07:58;;;;;;;0.80;0.60;;;13.90;82.30;;;;;;4162443;28;20634;-79
2021/05/22 08:10:01;;;;;;;1.37;0.57;;;13.90;81.30;;;;;;4165681;28;20210;-79
2021/05/22 08:12:02;;;;;;;1.73;0.47;;;14.00;78.30;;;;;;4170838;28;20222;-82
2021/05/22 08:14:04;;;;;;;0.87;0.50;;;14.00;78.90;;;;;;4171971;28;20221;-80
2021/05/22 08:16:06;;;;;;;1.57;0.70;;;14.00;79.40;;;;;;4168137;28;20226;-80
2021/05/22 08:18:07;;;;;;;0.83;0.50;;;13.90;80.00;;;;;;4172171;28;20210;-80
2021/05/22 08:20:11;;;;;;;2.37;0.60;;;13.80;80.60;;;;;;4174208;28;20292;-84
2021/05/22 08:22:13;;;;;;;1.37;0.47;;;13.80;80.70;;;;;;4170215;28;20273;-80
2021/05/22 08:24:14;;;;;;;4.83;0.50;;;13.70;79.10;;;;;;4169464;28;20226;-80
2021/05/22 08:26:15;;;;;;;2.90;0.77;;;13.80;77.50;;;;;;4170315;28;20247;-80
2021/05/22 08:28:21;;;;;;;2.43;0.70;;;13.80;78.50;;;;;;4174302;28;20218;-80
2021/05/22 08:30:23;;;;;;;2.40;0.70;;;14.00;77.70;;;;;;4173201;28;20207;-80
2021/05/22 08:32:26;;;;;;;3.27;0.70;;;14.10;73.20;;;;;;4169018;28;20218;-80
2021/05/22 08:34:27;;;;;;;2.37;0.60;;;14.30;72.10;;;;;;4164281;28;20212;-81
2021/05/22 08:36:30;;;;;;;2.43;0.57;;;14.50;70.00;;;;;;4163246;28;20250;-79
2021/05/22 08:38:31;;;;;;;2.93;0.93;;;14.50;71.30;;;;;;4158618;28;20227;-81
2021/05/22 08:40:32;;;;;;;1.80;0.70;;;14.40;70.40;;;;;;4163894;28;20215;-77
2021/05/22 08:42:34;;;;;;;4.20;0.93;;;14.40;70.30;;;;;;4157476;28;20216;-80
2021/05/22 08:44:38;;;;;;;2.73;0.80;;;14.40;70.20;;;;;;4166098;28;20814;-79
2021/05/22 08:46:40;;;;;;;2.10;0.60;;;14.40;70.90;;;;;;4177280;22;20707;-75
2021/05/22 08:48:42;;;;;;;6.30;0.77;;;14.50;71.70;;;;;;4162883;28;20552;-74
2021/05/22 08:50:43;;;;;;;1.87;0.70;;;14.60;69.90;;;;;;4154686;28;20215;-74
2021/05/22 08:52:45;;;;;;;2.03;0.80;;;14.70;67.90;;;;;;4163857;28;20261;-75
2021/05/22 08:54:47;;;;;;;2.93;0.70;;;14.70;65.60;;;;;;4163701;28;20775;-74
2021/05/22 08:56:49;;;;;;;4.07;0.73;;;14.70;67.10;;;;;;4163821;28;20223;-74
2021/05/22 08:58:50;;;;;;;2.70;0.87;;;14.60;68.40;;;;;;4159704;28;20856;-74
2021/05/22 09:00:53;;;;;;;0.83;0.60;;;14.60;66.30;;;;;;4160869;28;20265;-77
2021/05/22 09:02:55;;;;;;;1.53;0.60;;;14.80;59.80;;;;;;4160182;28;20248;-78
2021/05/22 09:05:19;;;;;;;4.67;0.70;;;14.90;59.00;;;;;;4154829;28;20224;-73
2021/05/22 09:07:23;;;;;;;2.67;0.70;;;14.90;58.80;;;;;;4150244;28;20277;-75
2021/05/22 09:09:37;;;;;;;2.17;0.83;;;14.80;58.70;;;;;;4161607;28;20218;-74
2021/05/22 09:11:50;;;;;;;3.70;0.90;;;14.80;58.90;;;;;;4155124;28;20211;-74
2021/05/22 09:13:52;;;;;;;2.70;0.70;;;14.80;60.30;;;;;;4163098;28;20215;-74
2021/05/22 09:15:56;;;;;;;2.87;0.90;;;14.70;62.10;;;;;;4164728;28;20207;-75
2021/05/22 09:17:59;;;;;;;3.27;0.70;;;14.70;64.50;;;;;;4156622;28;20222;-75
2021/05/22 09:20:15;;;;;;;2.27;0.60;;;14.80;61.80;;;;;;4157146;28;20220;-74
2021/05/22 09:22:24;;;;;;;4.83;1.10;;;15.00;59.30;;;;;;4156821;28;20571;-74
2021/05/22 09:24:25;;;;;;;3.60;0.80;;;15.20;55.10;;;;;;4153224;28;20219;-74
2021/05/22 09:26:32;;;;;;;2.80;0.70;;;15.30;54.00;;;;;;4153983;28;20239;-76
2021/05/22 09:28:35;;;;;;;3.73;0.80;;;15.30;54.00;;;;;;4151144;28;20581;-75
2021/05/22 09:30:38;;;;;;;4.00;0.70;;;15.30;54.20;;;;;;4156567;28;20253;-77
2021/05/22 09:32:41;;;;;;;3.50;0.73;;;15.30;54.90;;;;;;4149831;28;20211;-74
2021/05/22 09:34:43;;;;;;;1.97;0.67;;;15.30;55.90;;;;;;4154398;28;20275;-77
2021/05/22 09:36:44;;;;;;;2.83;1.00;;;15.20;57.50;;;;;;4153604;28;20231;-76
2021/05/22 09:38:50;;;;;;;5.20;0.60;;;15.40;55.60;;;;;;4156201;28;20222;-76
2021/05/22 09:40:51;;;;;;;5.17;1.00;;;15.40;52.00;;;;;;4151915;28;20304;-76
2021/05/22 09:42:53;;;;;;;2.77;0.87;;;15.40;51.60;;;;;;4146414;28;20208;-77
2021/05/22 09:44:54;;;;;;;2.57;0.57;;;15.20;53.00;;;;;;4146283;28;20215;-76
2021/05/22 09:47:02;;;;;;;1.47;0.60;;;15.20;54.90;;;;;;4150758;28;20239;-76
2021/05/22 09:49:04;;;;;;;4.70;0.60;;;15.10;55.00;;;;;;4152280;28;20230;-76
2021/05/22 09:51:07;;;;;;;2.83;0.97;;;15.10;53.80;;;;;;4147266;28;20662;-76
2021/05/22 09:53:29;;;;;;;5.10;0.80;;;15.10;54.30;;;;;;4155565;28;20252;-76
2021/05/22 09:55:30;;;;;;;2.67;0.93;;;15.10;53.50;;;;;;4151967;28;20701;-76
2021/05/22 09:57:44;;;;;;;3.77;0.80;;;15.20;54.10;;;;;;4154519;28;20273;-79
2021/05/22 10:00:11;;;;;;;2.20;1.00;;;15.30;54.50;;;;;;4158605;28;20238;-76
2021/05/22 10:02:12;;;;;;;1.03;0.60;;;15.30;52.80;;;;;;4159365;28;20216;-76
2021/05/22 10:04:18;;;;;;;2.77;0.93;;;15.50;50.10;;;;;;4149790;28;20216;-77
2021/05/22 10:06:39;;;;;;;4.93;0.87;;;15.60;50.40;;;;;;4158611;28;20237;-76
2021/05/22 10:08:40;;;;;;;4.43;0.70;;;15.70;49.20;;;;;;4155567;28;20254;-76
2021/05/22 10:10:45;;;;;;;3.43;1.00;;;15.80;48.80;;;;;;4155353;28;20217;-76
2021/05/22 10:12:47;;;;;;;4.20;0.90;;;15.90;49.20;;;;;;4157453;28;20215;-75
2021/05/22 10:14:48;;;;;;;3.83;0.70;;;16.10;49.50;;;;;;4151890;28;20234;-75
2021/05/22 10:16:49;;;;;;;3.40;0.80;;;16.30;48.50;;;;;;4152167;28;20240;-75
2021/05/22 10:18:51;;;;;;;6.03;0.70;;;16.50;48.60;;;;;;4155596;28;20208;-75
2021/05/22 10:20:54;;;;;;;1.47;0.60;;;16.60;47.60;;;;;;4154180;28;20213;-75
2021/05/22 10:22:57;;;;;;;1.30;0.40;;;16.60;45.40;;;;;;4157694;28;20221;-75
2021/05/22 10:24:58;;;;;;;2.97;0.70;;;16.60;44.10;;;;;;4149045;28;20211;-76
2021/05/22 10:27:00;;;;;;;2.63;0.70;;;16.50;44.80;;;;;;4146742;28;20296;-75
2021/05/22 10:29:03;;;;;;;1.77;0.57;;;16.50;44.40;;;;;;4150174;28;20213;-75
2021/05/22 10:31:05;;;;;;;3.17;0.87;;;16.60;45.40;;;;;;4149554;28;20236;-75
2021/05/22 10:33:08;;;;;;;5.23;0.77;;;16.50;43.90;;;;;;4154056;28;20211;-76
2021/05/22 10:35:11;;;;;;;4.77;0.40;;;16.40;44.70;;;;;;4152452;28;20695;-77
2021/05/22 10:37:40;;;;;;;4.53;0.90;;;16.30;44.30;;;;;;4163606;28;20238;-78
2021/05/22 10:39:50;;;;;;;2.03;0.70;;;16.30;45.00;;;;;;4155817;28;20691;-77